X  Cerrar Datos meteorológicos de aviación METAR     LEZL Sevilla Airport
Temperatura
32°C Temperatura
10°C Punto de rocío
26% Humedad



Viento
23 KM/H
14 MPH
6 M/S
12 NUDO



240°
OSO
Condiciones actuales

Despejado Despejado
Presión 1008.81 (hPa) - 29.79 (inHg)
Visibilidad 6 (milla) - 9.7 (km)
Aeropuerto
Código de aeropuerto LEZL

localidad: Sevilla Airport
Distancia: 41 (km)

Metar:
LEZL 171700Z 24012KT 200V270 CAVOK 32/10 Q1009 NOSIG

Hora: 17-06-2024 19:00 CEST